Flight Track Log - Related Links

Times and Time Zones

All times are in EDT time to prevent confusion due to time zone crossing. See the UAL252 flight status page for this flight to view local times or setup timezone preferences in your user account.

Time Position Orientation Groundspeed Altitude Reporting Facility
EDT Latitude Longitude Course Direction KTS MPH feet Rate Location/Type
Mon 06:35:07 AM 42.3500 -70.9833 124° Southeast 180 207 700  Level KA90
Mon 06:36:07 AM 42.3167 -70.9167 124° Southeast 230 265 2,200 1,800 Climbing KA90
Mon 06:37:07 AM 42.3333 -70.8167 77° East 284 327 4,300 2,632 Climbing KA90
Mon 06:38:42 AM 42.2500 -70.7264 141° Southeast 275 316 9,000 2,692 Climbing Boston Center
Mon 06:39:43 AM 42.1817 -70.7703 205° Southwest 234 269 11,300 1,785 Climbing Boston Center
Mon 06:40:43 AM 42.1708 -70.8797 262° West 215 247 12,600 1,900 Climbing Boston Center
Mon 06:41:43 AM 42.1514 -70.9839 256° West 275 316 15,100 2,269 Climbing Boston Center
Mon 06:42:42 AM 42.1239 -71.1133 254° West 313 360 17,100 2,100 Climbing Boston Center
Mon 06:43:43 AM 42.1044 -71.2369 258° West 335 386 19,300 1,983 Climbing Boston Center
Mon 06:44:43 AM 42.0783 -71.3575 254° West 340 391 21,100 1,664 Climbing Boston Center
Mon 06:45:42 AM 42.0525 -71.4811 254° West 340 391 22,600 1,361 Climbing Boston Center
Mon 06:46:42 AM 42.0283 -71.5819 252° West 340 391 23,800 1,388 Climbing Boston Center
Mon 06:47:43 AM 41.9981 -71.7389 255° West 350 403 25,400 1,438 Climbing Boston Center
Mon 06:48:43 AM 41.9697 -71.8706 254° West 363 418 26,700 1,261 Climbing Boston Center
Mon 06:49:42 AM 41.9411 -72.0019 254° West 368 423 27,900 950 Climbing Boston Center
Mon 06:50:43 AM 41.9164 -72.1219 255° West 368 423 28,600 793 Climbing Boston Center
Mon 06:51:43 AM 41.8875 -72.2617 255° West 380 437 29,500 1,261 Climbing Boston Center
Mon 06:52:42 AM 41.8564 -72.4011 253° West 385 443 31,100 1,261 Climbing Boston Center
Mon 06:53:42 AM 41.8294 -72.5319 255° West 380 437 32,000 450 Climbing Boston Center
Mon 06:54:42 AM 41.8000 -72.6628 253° West 365 420 32,000  Level Boston Center
Mon 06:55:42 AM 41.7725 -72.7964 255° West 365 420 32,000  Level Boston Center
Mon 06:56:42 AM 41.7428 -72.9325 254° West 376 433 32,000  Level Boston Center
Mon 06:57:43 AM 41.7131 -73.0686 254° West 376 433 32,000  Level Boston Center
Mon 06:58:42 AM 41.6850 -73.1989 254° West 376 433 32,000  Level Boston Center
Mon 06:59:42 AM 41.6444 -73.3319 248° West 381 438 32,000 -34 Level Boston Center
Mon 07:01:39 AM 41.5122 -73.5472 231° Southwest 375 432 31,900  Descending New York Center
Mon 07:02:39 AM 41.4408 -73.6550 229° Southwest 390 449 32,000 51 Climbing New York Center
Mon 07:03:37 AM 41.3717 -73.7625 229° Southwest 390 449 32,000 256 Level New York Center
Mon 07:04:36 AM 41.3000 -73.8697 228° Southwest 398 458 32,500 590 Climbing New York Center
Mon 07:05:39 AM 41.2283 -73.9767 228° Southwest 398 458 33,200 750 Climbing New York Center
Mon 07:06:36 AM 41.1547 -74.0806 227° Southwest 398 458 34,000 356 Climbing New York Center
Mon 07:07:37 AM 41.0892 -74.1875 231° Southwest 398 458 33,900  Descending New York Center
Mon 07:08:37 AM 41.0194 -74.2939 229° Southwest 392 451 34,000 50 Climbing New York Center
Mon 07:09:38 AM 40.9517 -74.4003 230° Southwest 392 451 34,000  Level New York Center
Mon 07:10:38 AM 40.8836 -74.5092 230° Southwest 392 451 34,000  Level New York Center
Mon 07:11:38 AM 40.8178 -74.6181 231° Southwest 392 451 34,000  Level New York Center
Mon 07:12:39 AM 40.7494 -74.7267 230° Southwest 387 445 34,000  Level New York Center
Mon 07:13:37 AM 40.6833 -74.8375 232° Southwest 387 445 34,000  Level New York Center
Mon 07:14:39 AM 40.6128 -74.9456 229° Southwest 387 445 34,000  Level New York Center
Mon 07:15:36 AM 40.5422 -75.0558 230° Southwest 394 453 34,000  Level New York Center
Mon 07:16:37 AM 40.4736 -75.1636 230° Southwest 394 453 34,000  Level New York Center
Mon 07:17:38 AM 40.4069 -75.2739 232° Southwest 394 453 34,000  Level New York Center
Mon 07:18:38 AM 40.3403 -75.3811 231° Southwest 389 448 34,000 -50 Level New York Center
Mon 07:19:39 AM 40.2736 -75.4828 229° Southwest 389 448 33,900 -50 Descending New York Center
Mon 07:20:37 AM 40.2108 -75.5925 233° Southwest 389 448 33,900 250 Level New York Center
Mon 07:21:39 AM 40.1519 -75.7081 236° Southwest 389 448 34,400 640 Climbing New York Center
Mon 07:23:54 AM 40.0256 -75.9600 237° Southwest 386 444 36,000 497 Climbing Washington Center
Mon 07:24:52 AM 39.9669 -76.0706 235° Southwest 386 444 36,000  Level Washington Center
Mon 07:25:53 AM 39.9081 -76.1867 237° Southwest 386 444 36,000  Level Washington Center
Mon 07:26:54 AM 39.8511 -76.2969 236° Southwest 386 444 36,000 -50 Level Washington Center
Mon 07:27:52 AM 39.7922 -76.4125 236° Southwest 386 444 35,900 -50 Descending Washington Center
Mon 07:28:53 AM 39.7286 -76.5358 236° Southwest 386 444 35,900 49 Level Washington Center
Mon 07:29:54 AM 39.6694 -76.6403 234° Southwest 391 450 36,000 50 Climbing Washington Center
Mon 07:30:52 AM 39.6122 -76.7497 236° Southwest 391 450 36,000  Level Washington Center
Mon 07:31:53 AM 39.5528 -76.8672 237° Southwest 391 450 36,000  Level Washington Center
Mon 07:32:53 AM 39.4889 -76.9764 233° Southwest 391 450 36,000  Level Washington Center
Mon 07:33:54 AM 39.4086 -77.0689 222° Southwest 391 450 36,000  Level Washington Center
Mon 07:34:52 AM 39.3222 -77.1611 220° Southwest 396 456 36,000  Level Washington Center
Mon 07:35:52 AM 39.2478 -77.2614 226° Southwest 396 456 36,000  Level Washington Center
Mon 07:36:53 AM 39.1733 -77.3667 228° Southwest 396 456 36,000  Level Washington Center
Mon 07:37:53 AM 39.1008 -77.4692 228° Southwest 396 456 36,000  Level Washington Center
Mon 07:38:54 AM 39.0242 -77.5794 228° Southwest 404 465 36,000 252 Level Washington Center
Mon 07:39:52 AM 38.9408 -77.6919 226° Southwest 404 465 36,500 403 Climbing Washington Center
Mon 07:40:53 AM 38.8681 -77.7967 228° Southwest 404 465 36,800 347 Climbing Washington Center
Mon 07:41:53 AM 38.7889 -77.9086 228° Southwest 415 478 37,200 300 Climbing Washington Center
Mon 07:42:53 AM 38.7139 -78.0103 227° Southwest 408 470 37,400 298 Climbing Washington Center
Mon 07:43:54 AM 38.6367 -78.1167 227° Southwest 408 470 37,800 303 Climbing Washington Center
Mon 07:44:52 AM 38.5617 -78.2175 226° Southwest 408 470 38,000 101 Climbing Washington Center
Mon 07:45:53 AM 38.4842 -78.3264 228° Southwest 413 475 38,000  Level Washington Center
Mon 07:46:54 AM 38.4067 -78.4294 226° Southwest 413 475 38,000  Level Washington Center
Mon 07:47:52 AM 38.3311 -78.5350 228° Southwest 408 470 38,000  Level Washington Center
Mon 07:48:52 AM 38.2664 -78.6250 228° Southwest 401 461 38,000  Level Washington Center
Mon 07:49:53 AM 38.1864 -78.7328 227° Southwest 401 461 38,000  Level Washington Center
Mon 07:50:53 AM 38.1019 -78.8453 226° Southwest 412 474 38,000  Level Washington Center
Mon 07:51:52 AM 38.0219 -78.9525 227° Southwest 412 474 38,000  Level Washington Center
Mon 07:52:53 AM 37.9397 -79.0517 224° Southwest 412 474 38,000  Level Washington Center
Mon 07:53:53 AM 37.8803 -79.1594 235° Southwest 412 474 38,000  Level Washington Center
Mon 07:54:53 AM 37.8183 -79.2800 237° Southwest 412 474 38,000  Level Washington Center
Mon 07:55:54 AM 37.7603 -79.4006 239° Southwest 412 474 38,000  Level Washington Center
Mon 07:56:54 AM 37.6914 -79.5364 237° Southwest 412 474 38,000  Level Washington Center
Mon 07:57:52 AM 37.6356 -79.6461 237° Southwest 417 480 38,000  Level Washington Center
Mon 07:58:54 AM 37.5683 -79.7761 237° Southwest 417 480 38,000  Level Washington Center
Mon 07:59:54 AM 37.5122 -79.8936 239° Southwest 425 489 38,000  Level Washington Center
Mon 08:00:52 AM 37.4494 -80.0131 237° Southwest 432 497 38,000  Level Washington Center
Mon 08:02:08 AM 37.3592 -80.1825 236° Southwest 413 475 38,000  Level Atlanta Center
Mon 08:03:08 AM 37.3022 -80.2925 237° Southwest 419 482 38,000  Level Atlanta Center
Mon 08:04:08 AM 37.2372 -80.4206 238° Southwest 425 489 38,000  Level Atlanta Center
Mon 08:05:08 AM 37.1742 -80.5408 237° Southwest 425 489 38,000  Level Atlanta Center
Mon 08:06:08 AM 37.1047 -80.6739 237° Southwest 425 489 38,000  Level Atlanta Center
Mon 08:07:08 AM 37.0542 -80.8008 244° Southwest 425 489 38,000  Level Atlanta Center
Mon 08:08:08 AM 37.0053 -80.9303 245° Southwest 412 474 38,000  Level Atlanta Center
Mon 08:09:08 AM 36.9606 -81.0567 246° West 407 468 38,000  Level Atlanta Center
Mon 08:10:08 AM 36.9217 -81.1750 248° West 407 468 38,000  Level Atlanta Center
Mon 08:11:08 AM 36.8725 -81.3064 245° Southwest 407 468 38,000  Level Atlanta Center
Mon 08:12:08 AM 36.8231 -81.4353 244° Southwest 407 468 38,000  Level Atlanta Center
Mon 08:13:08 AM 36.7781 -81.5792 249° West 407 468 38,000  Level Atlanta Center
Mon 08:14:08 AM 36.7286 -81.7128 245° Southwest 412 474 38,000  Level Atlanta Center
Mon 08:15:08 AM 36.6808 -81.8436 246° West 419 482 38,000  Level Atlanta Center
Mon 08:16:08 AM 36.6311 -81.9769 245° Southwest 419 482 38,000  Level Atlanta Center
Mon 08:17:08 AM 36.5811 -82.1075 245° Southwest 419 482 38,000  Level Atlanta Center
Mon 08:18:08 AM 36.5331 -82.2378 245° Southwest 419 482 38,000  Level Atlanta Center
Mon 08:19:08 AM 36.4828 -82.3708 245° Southwest 419 482 38,000  Level Atlanta Center
Mon 08:20:08 AM 36.4344 -82.5008 245° Southwest 419 482 38,000  Level Atlanta Center
Mon 08:21:08 AM 36.3881 -82.6306 246° West 419 482 38,000  Level Atlanta Center
Mon 08:22:08 AM 36.3372 -82.7553 243° Southwest 419 482 38,000  Level Atlanta Center
Mon 08:23:08 AM 36.2906 -82.8847 246° West 419 482 38,000  Level Atlanta Center
Mon 08:24:08 AM 36.2417 -83.0142 245° Southwest 419 482 38,000  Level Atlanta Center
Mon 08:25:08 AM 36.1928 -83.1433 245° Southwest 419 482 38,000  Level Atlanta Center
Mon 08:26:08 AM 36.1475 -83.2569 244° Southwest 419 482 38,000  Level Atlanta Center
Mon 08:27:08 AM 36.1003 -83.3861 246° West 414 476 38,000  Level Atlanta Center
Mon 08:28:08 AM 36.0447 -83.5122 241° Southwest 414 476 38,000  Level Atlanta Center
Mon 08:29:08 AM 35.9847 -83.6436 241° Southwest 414 476 38,000  Level Atlanta Center
Mon 08:30:08 AM 35.9267 -83.7669 240° Southwest 414 476 38,000  Level Atlanta Center
Mon 08:31:08 AM 35.8683 -83.8900 240° Southwest 414 476 38,000  Level Atlanta Center
Mon 08:32:08 AM 35.8100 -84.0106 239° Southwest 420 483 38,000  Level Atlanta Center
Mon 08:33:08 AM 35.7517 -84.1333 240° Southwest 420 483 38,000  Level Atlanta Center
Mon 08:34:08 AM 35.6953 -84.2536 240° Southwest 420 483 38,000  Level Atlanta Center
Mon 08:35:08 AM 35.6364 -84.3761 239° Southwest 425 489 38,000  Level Atlanta Center
Mon 08:36:08 AM 35.5861 -84.4831 240° Southwest 425 489 38,000  Level Atlanta Center
Mon 08:37:08 AM 35.5147 -84.5975 233° Southwest 425 489 38,000  Level Atlanta Center
Mon 08:38:08 AM 35.4244 -84.6911 220° Southwest 425 489 38,000  Level Atlanta Center
Mon 08:39:08 AM 35.3364 -84.7872 222° Southwest 430 495 38,000  Level Atlanta Center
Mon 08:40:08 AM 35.2481 -84.8856 222° Southwest 430 495 38,000  Level Atlanta Center
Mon 08:41:08 AM 35.1658 -84.9889 226° Southwest 430 495 38,000  Level Atlanta Center
Mon 08:42:08 AM 35.0878 -85.0972 229° Southwest 425 489 38,000  Level Atlanta Center
Mon 08:43:08 AM 35.0097 -85.2053 229° Southwest 425 489 38,000  Level Atlanta Center
Mon 08:44:08 AM 34.9397 -85.3208 234° Southwest 430 495 38,000  Level Atlanta Center
Mon 08:45:08 AM 34.8717 -85.4389 235° Southwest 436 502 38,000  Level Atlanta Center
Mon 08:46:08 AM 34.8033 -85.5539 234° Southwest 430 495 38,000  Level Atlanta Center
Mon 08:47:08 AM 34.7353 -85.6717 235° Southwest 430 495 38,000  Level Atlanta Center
Mon 08:48:08 AM 34.6667 -85.7864 234° Southwest 425 489 38,000  Level Atlanta Center
Mon 08:49:08 AM 34.5981 -85.9111 236° Southwest 418 481 38,000  Level Atlanta Center
Mon 08:50:08 AM 34.5336 -86.0333 237° Southwest 424 488 38,000  Level Atlanta Center
Mon 08:51:08 AM 34.4753 -86.1606 241° Southwest 430 495 38,000  Level Atlanta Center
Mon 08:52:08 AM 34.4144 -86.2897 240° Southwest 440 506 38,000  Level Atlanta Center
Mon 08:53:08 AM 34.3558 -86.4167 241° Southwest 440 506 38,000  Level Atlanta Center
Mon 08:54:08 AM 34.2969 -86.5433 241° Southwest 440 506 38,000  Level Atlanta Center
Mon 08:55:08 AM 34.2358 -86.6694 240° Southwest 440 506 38,000  Level Atlanta Center
Mon 08:56:08 AM 34.1767 -86.7908 240° Southwest 440 506 38,000  Level Atlanta Center
Mon 08:57:08 AM 34.1156 -86.9167 240° Southwest 440 506 38,000  Level Atlanta Center
Mon 08:59:19 AM 33.9922 -87.1831 241° Southwest 432 497 38,000  Level Memphis Center
Mon 09:00:19 AM 33.9328 -87.3028 239° Southwest 413 475 38,000  Level Memphis Center
Mon 09:01:19 AM 33.8772 -87.4250 241° Southwest 421 484 38,000  Level Memphis Center
Mon 09:02:19 AM 33.8194 -87.5444 240° Southwest 421 484 38,000  Level Memphis Center
Mon 09:03:19 AM 33.7553 -87.6689 238° Southwest 428 493 38,000  Level Memphis Center
Mon 09:04:19 AM 33.6975 -87.7931 241° Southwest 428 493 38,000  Level Memphis Center
Mon 09:05:19 AM 33.6372 -87.9144 239° Southwest 428 493 38,000  Level Memphis Center
Mon 09:06:19 AM 33.5772 -88.0408 240° Southwest 428 493 38,000  Level Memphis Center
Mon 09:07:19 AM 33.5189 -88.1619 240° Southwest 428 493 38,000  Level Memphis Center
Mon 09:08:19 AM 33.4564 -88.2981 241° Southwest 428 493 38,000  Level Memphis Center
Mon 09:09:19 AM 33.3956 -88.4164 238° Southwest 423 487 38,000  Level Memphis Center
Mon 09:10:19 AM 33.3369 -88.5394 240° Southwest 423 487 38,000  Level Memphis Center
Mon 09:11:19 AM 33.2719 -88.6603 237° Southwest 429 494 38,000  Level Memphis Center
Mon 09:12:19 AM 33.1942 -88.7686 229° Southwest 435 501 38,000  Level Memphis Center
Mon 09:13:19 AM 33.1161 -88.8764 229° Southwest 435 501 38,000  Level Memphis Center
Mon 09:14:19 AM 33.0400 -88.9869 231° Southwest 435 501 38,000  Level Memphis Center
Mon 09:15:19 AM 32.9639 -89.0969 231° Southwest 435 501 38,000  Level Memphis Center
Mon 09:16:19 AM 32.8858 -89.2069 230° Southwest 435 501 38,000  Level Memphis Center
Mon 09:17:19 AM 32.8136 -89.3239 234° Southwest 440 506 38,000  Level Memphis Center
Mon 09:18:19 AM 32.7542 -89.4531 241° Southwest 445 512 38,000  Level Memphis Center
Mon 09:19:19 AM 32.6925 -89.5797 240° Southwest 445 512 38,000  Level Memphis Center
Mon 09:20:19 AM 32.6325 -89.7061 241° Southwest 445 512 38,000  Level Memphis Center
Mon 09:21:19 AM 32.5706 -89.8347 240° Southwest 445 512 38,000  Level Memphis Center
Mon 09:22:19 AM 32.5106 -89.9631 241° Southwest 445 512 38,000  Level Memphis Center
Mon 09:23:19 AM 32.4503 -90.0889 240° Southwest 445 512 38,000  Level Memphis Center
Mon 09:24:19 AM 32.3900 -90.2147 240° Southwest 440 506 38,000  Level Memphis Center
Mon 09:25:19 AM 32.3294 -90.3378 240° Southwest 440 506 38,000  Level Memphis Center
Mon 09:26:19 AM 32.2711 -90.4631 241° Southwest 440 506 38,000 -40 Level Memphis Center
Mon 09:27:50 AM 32.1867 -90.6386 240° Southwest 440 506 37,900  Descending Houston Center
Mon 09:28:52 AM 32.1258 -90.7647 240° Southwest 443 510 38,000 48 Climbing Houston Center
Mon 09:29:54 AM 32.0531 -90.9122 240° Southwest 444 511 38,000  Level Houston Center
Mon 09:30:56 AM 31.9917 -91.0403 241° Southwest 448 516 38,000  Level Houston Center
Mon 09:31:58 AM 31.9281 -91.1658 239° Southwest 446 513 38,000  Level Houston Center
Mon 09:33:00 AM 31.8664 -91.2917 240° Southwest 443 510 38,000  Level Houston Center
Mon 09:34:02 AM 31.8033 -91.4164 239° Southwest 443 510 38,000  Level Houston Center
Mon 09:35:04 AM 31.7411 -91.5419 240° Southwest 445 512 38,000  Level Houston Center
Mon 09:36:06 AM 31.6658 -91.6925 240° Southwest 444 511 38,000  Level Houston Center
Mon 09:37:08 AM 31.6033 -91.8189 240° Southwest 446 513 38,000  Level Houston Center
Mon 09:38:10 AM 31.5400 -91.9411 239° Southwest 441 507 38,000 -48 Level Houston Center
Mon 09:39:12 AM 31.4817 -92.0544 239° Southwest 438 504 37,900 -48 Descending Houston Center
Mon 09:40:14 AM 31.4197 -92.1764 239° Southwest 437 503 37,900  Level Houston Center
Mon 09:41:15 AM 31.3456 -92.3253 240° Southwest 443 510 37,900 49 Level Houston Center
Mon 09:42:17 AM 31.2808 -92.4511 239° Southwest 453 521 38,000 48 Climbing Houston Center
Mon 09:43:19 AM 31.2144 -92.5739 238° Southwest 451 519 38,000  Level Houston Center
Mon 09:44:21 AM 31.1458 -92.6986 237° Southwest 456 525 38,000 -48 Level Houston Center
Mon 09:45:23 AM 31.0775 -92.8206 237° Southwest 451 519 37,900 -726 Descending Houston Center
Mon 09:46:25 AM 30.9958 -92.9658 237° Southwest 449 517 36,500 -1,355 Descending Houston Center
Mon 09:47:27 AM 30.9258 -93.0889 236° Southwest 456 525 35,100 -1,632 Descending Houston Center
Mon 09:48:30 AM 30.8556 -93.2136 237° Southwest 462 532 33,100 -1,872 Descending Houston Center
Mon 09:49:32 AM 30.7881 -93.3344 237° Southwest 450 518 31,200 -2,032 Descending Houston Center
Mon 09:50:34 AM 30.7214 -93.4511 236° Southwest 438 504 28,900 -3,048 Descending Houston Center
Mon 09:51:36 AM 30.6417 -93.5931 237° Southwest 442 509 24,900 -2,806 Descending Houston Center
Mon 09:52:38 AM 30.5747 -93.7094 236° Southwest 441 507 23,100 -2,032 Descending Houston Center
Mon 09:53:40 AM 30.5111 -93.8228 237° Southwest 431 496 20,700 -2,632 Descending Houston Center
Mon 09:54:32 AM 30.4525 -93.9236 236° Southwest 411 473 18,100 -2,516 Descending Houston Center
Mon 09:55:44 AM 30.3856 -94.0408 237° Southwest 411 473 15,500 -2,533 Descending Houston Center
Mon 09:56:47 AM 30.3128 -94.1631 235° Southwest 386 444 12,400 -1,680 Descending Houston Center
Mon 09:57:49 AM 30.2619 -94.2600 239° Southwest 357 411 12,000 -195 Descending Houston Center
Mon 09:58:50 AM 30.2194 -94.3664 245° Southwest 337 388 12,000 -393 Level Houston Center
Mon 09:59:51 AM 30.1786 -94.4639 244° Southwest 335 386 11,200 -836 Descending Houston Center
Mon 10:00:52 AM 30.1394 -94.5558 244° Southwest 293 337 10,300 -1,180 Descending Houston Center
Mon 10:01:53 AM 30.1036 -94.6428 245° Southwest 290 334 8,800 -1,122 Descending Houston Center
Mon 10:02:55 AM 30.0697 -94.7267 245° Southwest 280 322 8,000 -390 Descending Houston Center
Mon 10:03:56 AM 30.0375 -94.8058 245° Southwest 281 323 8,000 -323 Level Houston Center
Mon 10:05:05 AM 30.0069 -94.8831 245° Southwest 279 321 7,300 -564 Descending Houston Center
Mon 10:05:53 AM 29.9939 -94.9681 260° West 269 310 6,900 -881 Descending Houston Center
Mon 10:06:54 AM 29.9925 -95.0406 269° West 203 234 5,700 -1,475 Descending Houston Center
Mon 10:07:55 AM 29.9939 -95.1008 272° West 187 215 3,900 -1,579 Descending Houston Center
Mon 10:08:10 AM 29.9942 -95.1100 272° West 192 221 3,700 -1,082 Descending Houston Center
Mon 10:08:56 AM 29.9931 -95.1589 269° West 169 194 2,800 -1,174 Descending Houston Center

Login

Don't have an account? Register now (free) for customized features, flight alerts, and more!